Hlavní strana
METAR-TAF:

METAR-TAF

Letiště :

Qamishli, Sýrie

zeměpisná šířka: 37-03N, zeměpisná délka: 041-13E, výška: 455 m

Aktuální stav počasí

Zpráva byla vytvořena před 1 hodinou a 55 minutami, v 21:00 UTC
Západní vítr 10 kt
Teplota 26°C
Vlhkost vzduchu 23%
Tlak 1009 hPa
Viditelnost 10 km a více
Žádná oblačnost pod 1500 m, nevyskytují se cumulonimby.

METAR: OSKL 222100Z 28010KT CAVOK 26/03 Q1009

Čas: 01:55 (22:55 UTC)


TAF: chybějící

Stav a předpovědi počasí z více než 4 000 letišť (zprávy METAR a TAF).

Červené a žluté tečky na mapě představují dostupné meteorologické stanice.

Když kurzor umístíte na tečku, zobrazí se název stanice.

Pak kliknutím zobrazíte stav a předpověď počasí.

Chcete-li změnit mapu, kliknutím na zelené tlačítko se znaménkem +mapu přiblížíte, kliknutím na zelené tlačítko se znaménkem – mapu oddálíte a kliknutím na zelené šipky přejdete na sousední mapy.


METAR-TAF: